DW8209 Gubbio IT current weather conditions

sailwx.info

Wind from 276

Air temperature 7.8° C
Dewpoint 5.9° C

Last reported at 2017-Mar-23 21:47 UTC.
Time now 2017-Mar-23 22:04 UTC

Location: N 43°19' E 012°34'.
View on Google Maps.

See reports from other nearby stations

  
Tides and Currents Weather Stations Pressure Air Temp Water Temp Dewpoint Dewpoint Depression Visibility Wind Speed Wind Dir Waves Ship Positions
date/time (UTC)wind fromknots sea level pressurealtimeterstation pressurevisibilityair tempwater tempwave heightnotes
2017-Mar-23 21:47 276 7.8
2017-Mar-23 21:32 303 7.8
2017-Mar-23 21:17 290 7.8
2017-Mar-23 21:02 289 8.3
2017-Mar-23 20:47 289 0 gusting 0 8.9
2017-Mar-23 20:32 304 9.4
2017-Mar-23 20:17 311 10.0
2017-Mar-23 20:02 075 10.0
2017-Mar-23 19:47 075 11.1
2017-Mar-23 19:31 128 11.7
2017-Mar-23 19:16 129 11.7
2017-Mar-23 19:01 128 12.2
2017-Mar-23 18:46 099 12.8
2017-Mar-23 18:16 283 13.9
2017-Mar-23 18:01 289 13.9
2017-Mar-23 17:46 288 14.4
2017-Mar-23 17:31 288 15.0
2017-Mar-23 17:16 290 15.6
2017-Mar-23 17:01 290 15.6
2017-Mar-23 16:46 286 15.6
2017-Mar-23 16:31 276 0 gusting 2 15.6
2017-Mar-23 16:16 281 1 gusting 3 15.6
2017-Mar-23 16:01 273 3 gusting 5 16.1
2017-Mar-23 15:46 219 2 gusting 4 16.7
2017-Mar-23 15:31 208 2 gusting 8 16.7
2017-Mar-23 15:16 247 0 gusting 2 17.2
2017-Mar-23 15:01 214 0 gusting 6 16.7
2017-Mar-23 14:46 155 2 gusting 5 17.2
2017-Mar-23 14:31 207 2 gusting 6 17.2
2017-Mar-23 14:16 159 3 gusting 6 16.7
2017-Mar-23 14:01 105 4 gusting 7 16.1
2017-Mar-23 13:46 144 2 gusting 6 16.1
2017-Mar-23 13:31 278 0 gusting 4 16.1
2017-Mar-23 13:16 283 15.6
2017-Mar-23 13:01 229 15.6
2017-Mar-23 12:46 231 3 gusting 6 15.6
2017-Mar-23 12:31 231 5 gusting 9 15.0
2017-Mar-23 12:16 295 6 gusting 9 15.0
2017-Mar-23 12:01 271 3 gusting 6 15.0
2017-Mar-23 11:46 243 6 gusting 9 15.0
2017-Mar-23 11:31 238 6 gusting 10 15.0
2017-Mar-23 11:17 137 5 gusting 11 14.4
2017-Mar-23 11:01 257 4 gusting 7 14.4
2017-Mar-23 10:46 240 6 gusting 9 14.4
2017-Mar-23 10:31 167 6 gusting 9 14.4
2017-Mar-23 10:16 184 6 gusting 13 14.4
2017-Mar-23 10:01 165 4 gusting 8 14.4
2017-Mar-23 09:46 163 3 gusting 10 13.9
2017-Mar-23 09:31 176 3 gusting 6 13.3
2017-Mar-23 09:15 177 4 gusting 10 13.3
2017-Mar-23 09:01 162 2 gusting 10 13.3
2017-Mar-23 08:45 193 4 gusting 11 12.8
2017-Mar-23 08:30 153 5 gusting 11 12.8
2017-Mar-23 08:15 170 4 gusting 11 12.8
2017-Mar-23 08:00 167 5 gusting 11 12.8
2017-Mar-23 07:45 191 5 gusting 9 12.2
2017-Mar-23 07:30 172 3 gusting 8 11.7
2017-Mar-23 07:15 169 3 gusting 6 11.7
2017-Mar-23 07:00 141 11.1
2017-Mar-23 06:45 211 0 gusting 2 10.6
2017-Mar-23 06:30 095 10.6
2017-Mar-23 06:15 065 10.0
2017-Mar-23 06:00 025 10.0
2017-Mar-23 05:45 349 0 gusting 1 9.4
2017-Mar-23 05:15 344 9.4
2017-Mar-23 05:00 344 10.0
2017-Mar-23 04:45 343 10.0
2017-Mar-23 04:30 343 10.0
2017-Mar-23 04:15 319 10.0
2017-Mar-23 04:00 201 10.0
2017-Mar-23 03:45 224 10.0
2017-Mar-23 03:30 096 1 gusting 2 10.6
2017-Mar-23 03:15 106 10.6
2017-Mar-23 02:59 087 10.6
2017-Mar-23 02:44 117 1 gusting 4 11.1
2017-Mar-23 02:29 252 0 gusting 2 11.1
2017-Mar-23 02:14 212 10.6
2017-Mar-23 01:59 212 10.6
2017-Mar-23 01:44 226 10.6
2017-Mar-23 01:29 155 10.6
2017-Mar-23 01:14 155 10.6
2017-Mar-23 00:59 101 10.6
2017-Mar-23 00:44 110 10.6
2017-Mar-23 00:29 110 10.6
2017-Mar-23 00:14 165 10.6
2017-Mar-22 23:59 250 10.6
2017-Mar-22 23:44 091 10.6
2017-Mar-22 23:29 089 10.6
2017-Mar-22 23:14 089 10.6
2017-Mar-22 22:59 089 10.0
2017-Mar-22 22:44 088 10.0
2017-Mar-22 22:29 203 10.0
2017-Mar-22 22:14 150 10.0
2017-Mar-22 21:59 211 10.0
2017-Mar-22 21:44 118 10.6
2017-Mar-22 21:29 118 11.1
2017-Mar-22 21:14 200 11.1
2017-Mar-22 20:44 108 11.7
2017-Mar-22 20:29 195 11.7
2017-Mar-22 20:14 207 2 gusting 4 11.7
2017-Mar-22 19:44 208 2 gusting 4 12.2
2017-Mar-22 19:14 145 1 gusting 5 12.8
2017-Mar-22 18:59 131 2 gusting 5 12.8
2017-Mar-22 18:44 153 2 gusting 7 12.8
2017-Mar-22 18:29 186 4 gusting 7 12.8
2017-Mar-22 18:14 207 5 gusting 8 13.3
2017-Mar-22 17:59 210 6 gusting 13 13.3
2017-Mar-22 17:44 184 5 gusting 7 13.3
2017-Mar-22 17:29 188 2 gusting 6 13.3
2017-Mar-22 17:14 174 2 gusting 6 13.9
2017-Mar-22 16:59 200 3 gusting 9 13.9
2017-Mar-22 16:44 177 5 gusting 12 14.4
2017-Mar-22 16:29 228 6 gusting 12 14.4
2017-Mar-22 16:14 181 6 gusting 12 14.4
2017-Mar-22 15:59 181 3 gusting 12 15.0
2017-Mar-22 15:44 205 6 gusting 13 15.0
2017-Mar-22 15:29 205 6 gusting 13 15.0
2017-Mar-22 15:14 212 6 gusting 13 15.6
2017-Mar-22 14:59 192 5 gusting 13 15.6
2017-Mar-22 14:44 208 5 gusting 10 15.6
2017-Mar-22 14:29 181 6 gusting 9 15.6
2017-Mar-22 14:13 140 3 gusting 9 15.6
2017-Mar-22 13:59 143 5 gusting 8 15.6
2017-Mar-22 13:43 165 6 gusting 9 15.6
2017-Mar-22 13:28 129 3 gusting 9 15.6
2017-Mar-22 13:13 164 3 gusting 9 15.0
2017-Mar-22 12:58 117 5 gusting 10 15.6
2017-Mar-22 12:43 158 4 gusting 7 15.6
2017-Mar-22 12:28 169 5 gusting 11 15.6
2017-Mar-22 12:13 127 5 gusting 12 15.6
2017-Mar-22 11:58 150 5 gusting 10 15.0
2017-Mar-22 11:43 146 5 gusting 10 15.0
2017-Mar-22 11:28 186 5 gusting 9 15.6
2017-Mar-22 11:13 160 4 gusting 8 15.0
2017-Mar-22 10:58 152 4 gusting 8 15.0
2017-Mar-22 10:43 211 1 gusting 6 13.9
2017-Mar-22 10:28 139 3 gusting 8 13.3
2017-Mar-22 10:13 105 12.8
2017-Mar-22 09:58 070 0 gusting 3 12.8
2017-Mar-22 09:43 029 12.2
2017-Mar-22 09:28 134 11.7
2017-Mar-22 09:13 146 11.1
2017-Mar-22 08:58 146 10.6
2017-Mar-22 08:43 154 10.0
2017-Mar-22 08:28 127 9.4
2017-Mar-22 08:12 333 8.9
2017-Mar-22 07:58 016 8.9
2017-Mar-22 07:42 016 8.3
2017-Mar-22 07:27 253 8.3
2017-Mar-22 07:12 253 7.8
2017-Mar-22 06:57 253 6.7
2017-Mar-22 06:42 253 6.7
2017-Mar-22 06:28 253 0 gusting 1 6.1
2017-Mar-22 06:12 068 6.1
2017-Mar-22 05:57 295 5.6
2017-Mar-22 05:42 294 5.0
2017-Mar-22 05:27 294 4.4
2017-Mar-22 05:12 294 0 gusting 0 4.4
2017-Mar-22 04:57 294 5.0
2017-Mar-22 04:42 294 5.0
2017-Mar-22 04:27 287 5.0
2017-Mar-22 04:12 277 5.6
2017-Mar-22 03:57 277 6.1
2017-Mar-22 03:42 276 5.6
2017-Mar-22 03:27 276 5.6
2017-Mar-22 03:12 276 6.1
2017-Mar-22 02:57 276 6.1
2017-Mar-22 02:42 291 0 gusting 1 6.7
2017-Mar-22 02:27 307 6.7
2017-Mar-22 02:12 269 7.2
2017-Mar-22 01:57 269 7.8
2017-Mar-22 01:42 269 8.3
2017-Mar-22 01:27 269 8.3
2017-Mar-22 01:12 238 8.3
2017-Mar-22 00:57 237 8.9
2017-Mar-22 00:41 237 8.9
2017-Mar-22 00:26 139 8.9
2017-Mar-22 00:11 139 8.9
2017-Mar-21 23:56 139 9.4
2017-Mar-21 23:41 139 9.4
2017-Mar-21 23:26 139 9.4
2017-Mar-21 23:11 060 10.0
2017-Mar-21 22:56 283 10.0
2017-Mar-21 22:41 283 10.0
2017-Mar-21 22:26 283 10.6
2017-Mar-21 22:11 283 10.6